sensor_id;sensor_type;location;lat;lon;timestamp;temperature;humidity
29453;DHT22;16424;50.956;5.320;2023-06-01T00:01:56;17.50;99.90
29453;DHT22;16424;50.956;5.320;2023-06-01T00:04:22;17.50;99.90
29453;DHT22;16424;50.956;5.320;2023-06-01T00:06:48;17.40;99.90
29453;DHT22;16424;50.956;5.320;2023-06-01T00:09:14;17.40;99.90
29453;DHT22;16424;50.956;5.320;2023-06-01T00:11:40;17.30;99.90
29453;DHT22;16424;50.956;5.320;2023-06-01T00:14:06;17.20;99.90
29453;DHT22;16424;50.956;5.320;2023-06-01T00:16:32;17.10;99.90
29453;DHT22;16424;50.956;5.320;2023-06-01T00:18:58;17.10;99.90
29453;DHT22;16424;50.956;5.320;2023-06-01T00:21:27;17.10;99.90
29453;DHT22;16424;50.956;5.320;2023-06-01T00:23:53;17.10;99.90
29453;DHT22;16424;50.956;5.320;2023-06-01T00:26:20;17.00;99.90
29453;DHT22;16424;50.956;5.320;2023-06-01T00:28:46;17.00;99.90
29453;DHT22;16424;50.956;5.320;2023-06-01T00:31:12;17.00;99.90
29453;DHT22;16424;50.956;5.320;2023-06-01T00:33:38;16.80;99.90
29453;DHT22;16424;50.956;5.320;2023-06-01T00:36:04;16.70;99.90
29453;DHT22;16424;50.956;5.320;2023-06-01T00:38:30;16.80;99.90
29453;DHT22;16424;50.956;5.320;2023-06-01T00:40:56;16.70;99.90
29453;DHT22;16424;50.956;5.320;2023-06-01T00:43:22;16.60;99.90
29453;DHT22;16424;50.956;5.320;2023-06-01T00:45:48;16.60;99.90
29453;DHT22;16424;50.956;5.320;2023-06-01T00:48:15;16.50;99.90
29453;DHT22;16424;50.956;5.320;2023-06-01T00:50:44;16.40;99.90
29453;DHT22;16424;50.956;5.320;2023-06-01T00:53:18;16.40;99.90
29453;DHT22;16424;50.956;5.320;2023-06-01T00:55:45;16.40;99.90
29453;DHT22;16424;50.956;5.320;2023-06-01T00:58:15;16.30;99.90
29453;DHT22;16424;50.956;5.320;2023-06-01T01:00:41;16.20;99.90
29453;DHT22;16424;50.956;5.320;2023-06-01T01:03:07;16.20;99.90
29453;DHT22;16424;50.956;5.320;2023-06-01T01:05:36;16.20;99.90
29453;DHT22;16424;50.956;5.320;2023-06-01T01:08:37;16.20;99.90
29453;DHT22;16424;50.956;5.320;2023-06-01T01:11:15;16.20;99.90
29453;DHT22;16424;50.956;5.320;2023-06-01T01:14:04;16.10;99.90
29453;DHT22;16424;50.956;5.320;2023-06-01T01:16:53;16.10;99.90
29453;DHT22;16424;50.956;5.320;2023-06-01T01:22:43;16.00;99.90
29453;DHT22;16424;50.956;5.320;2023-06-01T01:28:05;15.80;99.90
29453;DHT22;16424;50.956;5.320;2023-06-01T01:30:36;15.50;99.90
29453;DHT22;16424;50.956;5.320;2023-06-01T01:33:04;15.40;99.90
29453;DHT22;16424;50.956;5.320;2023-06-01T01:35:32;15.30;99.90
29453;DHT22;16424;50.956;5.320;2023-06-01T01:37:59;15.30;99.90
29453;DHT22;16424;50.956;5.320;2023-06-01T01:40:24;15.20;99.90
29453;DHT22;16424;50.956;5.320;2023-06-01T01:42:51;15.20;99.90
29453;DHT22;16424;50.956;5.320;2023-06-01T01:45:18;15.10;99.90
29453;DHT22;16424;50.956;5.320;2023-06-01T01:50:27;15.00;99.90
29453;DHT22;16424;50.956;5.320;2023-06-01T01:52:55;14.80;99.90
29453;DHT22;16424;50.956;5.320;2023-06-01T01:55:22;14.80;99.90
29453;DHT22;16424;50.956;5.320;2023-06-01T01:57:50;14.80;99.90
29453;DHT22;16424;50.956;5.320;2023-06-01T02:00:18;14.70;99.90
29453;DHT22;16424;50.956;5.320;2023-06-01T02:02:45;14.80;99.90
29453;DHT22;16424;50.956;5.320;2023-06-01T02:05:12;14.70;99.90
29453;DHT22;16424;50.956;5.320;2023-06-01T02:07:38;14.80;99.90
29453;DHT22;16424;50.956;5.320;2023-06-01T02:10:04;14.80;99.90
29453;DHT22;16424;50.956;5.320;2023-06-01T02:12:30;14.80;99.90
29453;DHT22;16424;50.956;5.320;2023-06-01T02:14:56;14.70;99.90
29453;DHT22;16424;50.956;5.320;2023-06-01T02:17:22;14.70;99.90
29453;DHT22;16424;50.956;5.320;2023-06-01T02:19:50;14.60;99.90
29453;DHT22;16424;50.956;5.320;2023-06-01T02:22:16;14.50;99.90
29453;DHT22;16424;50.956;5.320;2023-06-01T02:24:42;14.50;99.90
29453;DHT22;16424;50.956;5.320;2023-06-01T02:27:08;14.40;99.90
29453;DHT22;16424;50.956;5.320;2023-06-01T02:29:34;14.40;99.90
29453;DHT22;16424;50.956;5.320;2023-06-01T02:32:00;14.40;99.90
29453;DHT22;16424;50.956;5.320;2023-06-01T02:34:26;14.30;99.90
29453;DHT22;16424;50.956;5.320;2023-06-01T02:36:52;14.30;99.90
29453;DHT22;16424;50.956;5.320;2023-06-01T02:39:22;14.20;99.90
29453;DHT22;16424;50.956;5.320;2023-06-01T02:41:48;14.10;99.90
29453;DHT22;16424;50.956;5.320;2023-06-01T02:44:13;14.10;99.90
29453;DHT22;16424;50.956;5.320;2023-06-01T02:46:40;14.10;99.90
29453;DHT22;16424;50.956;5.320;2023-06-01T02:49:05;14.10;99.90
29453;DHT22;16424;50.956;5.320;2023-06-01T02:51:31;14.00;99.90
29453;DHT22;16424;50.956;5.320;2023-06-01T02:53:59;14.10;99.90
29453;DHT22;16424;50.956;5.320;2023-06-01T02:56:25;14.10;99.90
29453;DHT22;16424;50.956;5.320;2023-06-01T02:58:52;14.10;99.90
29453;DHT22;16424;50.956;5.320;2023-06-01T03:01:18;14.10;99.90
29453;DHT22;16424;50.956;5.320;2023-06-01T03:03:46;14.00;99.90
29453;DHT22;16424;50.956;5.320;2023-06-01T03:06:12;14.00;99.90
29453;DHT22;16424;50.956;5.320;2023-06-01T03:08:39;14.10;99.90
29453;DHT22;16424;50.956;5.320;2023-06-01T03:11:05;14.00;99.90
29453;DHT22;16424;50.956;5.320;2023-06-01T03:13:31;13.90;99.90
29453;DHT22;16424;50.956;5.320;2023-06-01T03:15:57;13.80;99.90
29453;DHT22;16424;50.956;5.320;2023-06-01T03:18:23;13.60;99.90
29453;DHT22;16424;50.956;5.320;2023-06-01T03:20:49;13.40;99.90
29453;DHT22;16424;50.956;5.320;2023-06-01T03:23:15;13.40;99.90
29453;DHT22;16424;50.956;5.320;2023-06-01T03:25:41;13.40;99.90
29453;DHT22;16424;50.956;5.320;2023-06-01T03:28:08;13.40;99.90
29453;DHT22;16424;50.956;5.320;2023-06-01T03:30:33;13.30;99.90
29453;DHT22;16424;50.956;5.320;2023-06-01T03:32:59;13.30;99.90
29453;DHT22;16424;50.956;5.320;2023-06-01T03:35:26;13.20;99.90
29453;DHT22;16424;50.956;5.320;2023-06-01T03:37:51;13.10;99.90
29453;DHT22;16424;50.956;5.320;2023-06-01T03:40:17;13.00;99.90
29453;DHT22;16424;50.956;5.320;2023-06-01T03:42:45;13.10;99.90
29453;DHT22;16424;50.956;5.320;2023-06-01T03:45:13;13.10;99.90
29453;DHT22;16424;50.956;5.320;2023-06-01T03:47:41;13.00;99.90
29453;DHT22;16424;50.956;5.320;2023-06-01T03:50:08;12.90;99.90
29453;DHT22;16424;50.956;5.320;2023-06-01T03:52:36;12.90;99.90
29453;DHT22;16424;50.956;5.320;2023-06-01T03:55:03;12.90;99.90
29453;DHT22;16424;50.956;5.320;2023-06-01T03:57:36;12.80;99.90
29453;DHT22;16424;50.956;5.320;2023-06-01T04:00:04;12.90;99.90
29453;DHT22;16424;50.956;5.320;2023-06-01T04:02:48;12.90;99.90
29453;DHT22;16424;50.956;5.320;2023-06-01T04:05:21;12.80;99.90
29453;DHT22;16424;50.956;5.320;2023-06-01T04:07:48;12.80;99.90
29453;DHT22;16424;50.956;5.320;2023-06-01T04:10:15;12.80;99.90
29453;DHT22;16424;50.956;5.320;2023-06-01T04:12:43;12.80;99.90
29453;DHT22;16424;50.956;5.320;2023-06-01T04:15:11;12.90;99.90
29453;DHT22;16424;50.956;5.320;2023-06-01T04:17:38;12.90;99.90
29453;DHT22;16424;50.956;5.320;2023-06-01T04:20:05;12.90;99.90
29453;DHT22;16424;50.956;5.320;2023-06-01T04:22:32;12.90;99.90
29453;DHT22;16424;50.956;5.320;2023-06-01T04:24:58;12.90;99.90
29453;DHT22;16424;50.956;5.320;2023-06-01T04:27:24;12.80;99.90
29453;DHT22;16424;50.956;5.320;2023-06-01T04:29:51;12.70;99.90
29453;DHT22;16424;50.956;5.320;2023-06-01T04:32:19;12.60;99.90
29453;DHT22;16424;50.956;5.320;2023-06-01T04:34:49;12.50;99.90
29453;DHT22;16424;50.956;5.320;2023-06-01T04:37:16;12.50;99.90
29453;DHT22;16424;50.956;5.320;2023-06-01T04:39:47;12.50;99.90
29453;DHT22;16424;50.956;5.320;2023-06-01T04:42:17;12.50;99.90
29453;DHT22;16424;50.956;5.320;2023-06-01T04:44:44;12.60;99.90
29453;DHT22;16424;50.956;5.320;2023-06-01T04:47:18;12.70;99.90
29453;DHT22;16424;50.956;5.320;2023-06-01T04:49:46;12.80;99.90
29453;DHT22;16424;50.956;5.320;2023-06-01T04:52:12;12.70;99.90
29453;DHT22;16424;50.956;5.320;2023-06-01T04:54:38;12.60;99.90
29453;DHT22;16424;50.956;5.320;2023-06-01T04:57:04;12.50;99.90
29453;DHT22;16424;50.956;5.320;2023-06-01T04:59:33;12.50;99.90
29453;DHT22;16424;50.956;5.320;2023-06-01T05:02:00;12.50;99.90
29453;DHT22;16424;50.956;5.320;2023-06-01T05:04:26;12.30;99.90
29453;DHT22;16424;50.956;5.320;2023-06-01T05:06:52;12.20;99.90
29453;DHT22;16424;50.956;5.320;2023-06-01T05:09:18;12.20;99.90
29453;DHT22;16424;50.956;5.320;2023-06-01T05:11:44;12.10;99.90
29453;DHT22;16424;50.956;5.320;2023-06-01T05:14:10;12.20;99.90
29453;DHT22;16424;50.956;5.320;2023-06-01T05:16:36;12.30;99.90
29453;DHT22;16424;50.956;5.320;2023-06-01T05:19:01;12.30;99.90
29453;DHT22;16424;50.956;5.320;2023-06-01T05:21:27;12.20;99.90
29453;DHT22;16424;50.956;5.320;2023-06-01T05:23:53;12.30;99.90
29453;DHT22;16424;50.956;5.320;2023-06-01T05:26:19;12.50;99.90
29453;DHT22;16424;50.956;5.320;2023-06-01T05:28:47;12.60;99.90
29453;DHT22;16424;50.956;5.320;2023-06-01T05:31:13;12.80;99.90
29453;DHT22;16424;50.956;5.320;2023-06-01T05:33:39;12.90;99.90
29453;DHT22;16424;50.956;5.320;2023-06-01T05:36:05;13.10;99.90
29453;DHT22;16424;50.956;5.320;2023-06-01T05:38:32;13.00;99.90
29453;DHT22;16424;50.956;5.320;2023-06-01T05:40:57;13.00;99.90
29453;DHT22;16424;50.956;5.320;2023-06-01T05:43:23;13.00;99.90
29453;DHT22;16424;50.956;5.320;2023-06-01T05:45:49;12.90;99.90
29453;DHT22;16424;50.956;5.320;2023-06-01T05:48:15;13.00;99.90
29453;DHT22;16424;50.956;5.320;2023-06-01T05:50:41;13.10;99.90
29453;DHT22;16424;50.956;5.320;2023-06-01T05:53:08;13.10;99.90
29453;DHT22;16424;50.956;5.320;2023-06-01T05:55:34;13.30;99.90
29453;DHT22;16424;50.956;5.320;2023-06-01T05:57:59;13.40;99.90
29453;DHT22;16424;50.956;5.320;2023-06-01T06:00:25;13.20;99.90
29453;DHT22;16424;50.956;5.320;2023-06-01T06:02:51;13.00;99.90
29453;DHT22;16424;50.956;5.320;2023-06-01T06:05:18;13.00;99.90
29453;DHT22;16424;50.956;5.320;2023-06-01T06:07:52;13.00;99.90
29453;DHT22;16424;50.956;5.320;2023-06-01T06:10:18;13.10;99.90
29453;DHT22;16424;50.956;5.320;2023-06-01T06:12:43;13.10;99.90
29453;DHT22;16424;50.956;5.320;2023-06-01T06:15:10;13.00;99.90
29453;DHT22;16424;50.956;5.320;2023-06-01T06:17:36;12.70;99.90
29453;DHT22;16424;50.956;5.320;2023-06-01T06:20:02;12.60;99.90
29453;DHT22;16424;50.956;5.320;2023-06-01T06:22:32;12.60;99.90
29453;DHT22;16424;50.956;5.320;2023-06-01T06:24:58;12.50;99.90
29453;DHT22;16424;50.956;5.320;2023-06-01T06:27:23;12.50;99.90
29453;DHT22;16424;50.956;5.320;2023-06-01T06:29:49;12.60;99.90
29453;DHT22;16424;50.956;5.320;2023-06-01T06:32:15;12.70;99.90
29453;DHT22;16424;50.956;5.320;2023-06-01T06:34:41;12.80;99.90
29453;DHT22;16424;50.956;5.320;2023-06-01T06:37:07;13.00;99.90
29453;DHT22;16424;50.956;5.320;2023-06-01T06:39:33;13.20;99.90
29453;DHT22;16424;50.956;5.320;2023-06-01T06:42:00;13.30;99.90
29453;DHT22;16424;50.956;5.320;2023-06-01T06:44:29;13.30;99.90
29453;DHT22;16424;50.956;5.320;2023-06-01T06:46:59;13.60;99.90
29453;DHT22;16424;50.956;5.320;2023-06-01T06:49:26;13.90;99.90
29453;DHT22;16424;50.956;5.320;2023-06-01T06:51:52;14.30;99.90
29453;DHT22;16424;50.956;5.320;2023-06-01T06:54:18;14.60;99.90
29453;DHT22;16424;50.956;5.320;2023-06-01T06:56:44;15.30;99.90
29453;DHT22;16424;50.956;5.320;2023-06-01T06:59:11;15.90;99.90
29453;DHT22;16424;50.956;5.320;2023-06-01T07:01:37;15.90;99.90
29453;DHT22;16424;50.956;5.320;2023-06-01T07:04:06;16.20;99.90
29453;DHT22;16424;50.956;5.320;2023-06-01T07:06:32;16.70;99.90
29453;DHT22;16424;50.956;5.320;2023-06-01T07:08:59;16.80;99.90
29453;DHT22;16424;50.956;5.320;2023-06-01T07:11:26;17.20;99.90
29453;DHT22;16424;50.956;5.320;2023-06-01T07:13:55;17.90;99.90
29453;DHT22;16424;50.956;5.320;2023-06-01T07:16:23;18.40;99.90
29453;DHT22;16424;50.956;5.320;2023-06-01T07:18:50;17.70;99.90
29453;DHT22;16424;50.956;5.320;2023-06-01T07:21:17;17.40;99.90
29453;DHT22;16424;50.956;5.320;2023-06-01T07:23:44;17.80;99.90
29453;DHT22;16424;50.956;5.320;2023-06-01T07:26:10;18.80;99.90
29453;DHT22;16424;50.956;5.320;2023-06-01T07:28:36;19.50;99.90
29453;DHT22;16424;50.956;5.320;2023-06-01T07:31:03;20.40;99.90
29453;DHT22;16424;50.956;5.320;2023-06-01T07:33:29;20.50;99.90
29453;DHT22;16424;50.956;5.320;2023-06-01T07:35:55;20.40;99.90
29453;DHT22;16424;50.956;5.320;2023-06-01T07:38:23;20.30;99.90
29453;DHT22;16424;50.956;5.320;2023-06-01T07:40:51;20.10;99.90
29453;DHT22;16424;50.956;5.320;2023-06-01T07:43:17;20.50;99.90
29453;DHT22;16424;50.956;5.320;2023-06-01T07:45:43;20.50;99.90
29453;DHT22;16424;50.956;5.320;2023-06-01T07:48:09;20.80;99.90
29453;DHT22;16424;50.956;5.320;2023-06-01T07:50:35;21.30;99.90
29453;DHT22;16424;50.956;5.320;2023-06-01T07:53:02;21.10;99.90
29453;DHT22;16424;50.956;5.320;2023-06-01T07:55:31;21.90;99.90
29453;DHT22;16424;50.956;5.320;2023-06-01T07:57:57;21.90;99.90
29453;DHT22;16424;50.956;5.320;2023-06-01T08:00:23;22.30;99.90
29453;DHT22;16424;50.956;5.320;2023-06-01T08:02:49;22.60;99.90
29453;DHT22;16424;50.956;5.320;2023-06-01T08:05:16;22.50;99.90
29453;DHT22;16424;50.956;5.320;2023-06-01T08:07:43;23.00;99.90
29453;DHT22;16424;50.956;5.320;2023-06-01T08:10:11;22.90;99.90
29453;DHT22;16424;50.956;5.320;2023-06-01T08:12:37;22.60;99.90
29453;DHT22;16424;50.956;5.320;2023-06-01T08:15:04;23.80;99.90
29453;DHT22;16424;50.956;5.320;2023-06-01T08:17:31;24.80;99.90
29453;DHT22;16424;50.956;5.320;2023-06-01T08:19:57;25.60;99.90
29453;DHT22;16424;50.956;5.320;2023-06-01T08:22:23;25.00;99.90
29453;DHT22;16424;50.956;5.320;2023-06-01T08:24:50;24.60;99.90
29453;DHT22;16424;50.956;5.320;2023-06-01T08:27:17;25.40;99.60
29453;DHT22;16424;50.956;5.320;2023-06-01T08:29:45;25.20;99.80
29453;DHT22;16424;50.956;5.320;2023-06-01T08:32:12;25.20;99.50
29453;DHT22;16424;50.956;5.320;2023-06-01T08:34:38;25.60;99.10
29453;DHT22;16424;50.956;5.320;2023-06-01T08:37:04;25.10;99.50
29453;DHT22;16424;50.956;5.320;2023-06-01T08:39:30;24.60;99.40
29453;DHT22;16424;50.956;5.320;2023-06-01T08:42:15;24.80;99.70
29453;DHT22;16424;50.956;5.320;2023-06-01T08:44:44;25.20;99.00
29453;DHT22;16424;50.956;5.320;2023-06-01T08:47:10;25.40;98.30
29453;DHT22;16424;50.956;5.320;2023-06-01T08:49:36;25.00;98.30
29453;DHT22;16424;50.956;5.320;2023-06-01T08:52:13;24.80;98.40
29453;DHT22;16424;50.956;5.320;2023-06-01T08:54:39;25.10;98.40
29453;DHT22;16424;50.956;5.320;2023-06-01T08:57:06;25.40;97.50
29453;DHT22;16424;50.956;5.320;2023-06-01T08:59:36;25.50;97.70
29453;DHT22;16424;50.956;5.320;2023-06-01T09:02:03;25.30;97.10
29453;DHT22;16424;50.956;5.320;2023-06-01T09:04:29;24.90;97.40
29453;DHT22;16424;50.956;5.320;2023-06-01T09:06:57;25.10;98.10
29453;DHT22;16424;50.956;5.320;2023-06-01T09:09:23;25.30;97.10
29453;DHT22;16424;50.956;5.320;2023-06-01T09:12:42;25.00;97.00
29453;DHT22;16424;50.956;5.320;2023-06-01T09:17:33;25.30;97.30
29453;DHT22;16424;50.956;5.320;2023-06-01T09:20:00;25.10;96.90
29453;DHT22;16424;50.956;5.320;2023-06-01T09:22:41;24.50;97.10
29453;DHT22;16424;50.956;5.320;2023-06-01T09:25:09;24.10;98.60
29453;DHT22;16424;50.956;5.320;2023-06-01T09:27:47;23.90;97.90
29453;DHT22;16424;50.956;5.320;2023-06-01T09:30:13;24.00;98.10
29453;DHT22;16424;50.956;5.320;2023-06-01T09:32:39;23.50;98.00
29453;DHT22;16424;50.956;5.320;2023-06-01T09:35:07;23.00;98.20
29453;DHT22;16424;50.956;5.320;2023-06-01T09:37:37;22.70;98.90
29453;DHT22;16424;50.956;5.320;2023-06-01T09:40:16;22.40;98.30
29453;DHT22;16424;50.956;5.320;2023-06-01T09:42:43;22.20;99.20
29453;DHT22;16424;50.956;5.320;2023-06-01T09:45:22;21.80;98.50
29453;DHT22;16424;50.956;5.320;2023-06-01T09:47:50;21.50;99.10
29453;DHT22;16424;50.956;5.320;2023-06-01T09:50:36;21.20;98.80
29453;DHT22;16424;50.956;5.320;2023-06-01T09:53:04;21.10;99.60
29453;DHT22;16424;50.956;5.320;2023-06-01T09:55:31;20.80;99.90
29453;DHT22;16424;50.956;5.320;2023-06-01T09:58:22;20.60;99.90
29453;DHT22;16424;50.956;5.320;2023-06-01T10:00:49;20.50;99.90
29453;DHT22;16424;50.956;5.320;2023-06-01T10:03:16;20.60;99.90
29453;DHT22;16424;50.956;5.320;2023-06-01T10:05:46;20.80;99.90
29453;DHT22;16424;50.956;5.320;2023-06-01T10:08:14;21.00;99.90
29453;DHT22;16424;50.956;5.320;2023-06-01T10:10:43;21.20;99.90
29453;DHT22;16424;50.956;5.320;2023-06-01T10:13:13;21.40;99.90
29453;DHT22;16424;50.956;5.320;2023-06-01T10:15:39;21.40;99.90
29453;DHT22;16424;50.956;5.320;2023-06-01T10:18:06;21.20;99.90
29453;DHT22;16424;50.956;5.320;2023-06-01T10:20:37;21.20;99.90
29453;DHT22;16424;50.956;5.320;2023-06-01T10:23:04;21.00;99.90
29453;DHT22;16424;50.956;5.320;2023-06-01T10:25:39;21.00;99.90
29453;DHT22;16424;50.956;5.320;2023-06-01T10:28:11;21.10;99.90
29453;DHT22;16424;50.956;5.320;2023-06-01T10:30:37;21.20;99.90
29453;DHT22;16424;50.956;5.320;2023-06-01T10:33:03;21.10;99.90
29453;DHT22;16424;50.956;5.320;2023-06-01T10:40:42;22.10;99.70
29453;DHT22;16424;50.956;5.320;2023-06-01T10:46:35;21.70;99.40
29453;DHT22;16424;50.956;5.320;2023-06-01T10:49:02;21.60;99.90
29453;DHT22;16424;50.956;5.320;2023-06-01T10:51:28;21.70;99.90
29453;DHT22;16424;50.956;5.320;2023-06-01T10:53:55;21.70;99.90
29453;DHT22;16424;50.956;5.320;2023-06-01T10:56:40;21.60;99.90
29453;DHT22;16424;50.956;5.320;2023-06-01T11:01:40;21.50;99.90
29453;DHT22;16424;50.956;5.320;2023-06-01T11:04:06;21.60;99.90
29453;DHT22;16424;50.956;5.320;2023-06-01T11:06:35;21.80;99.90
29453;DHT22;16424;50.956;5.320;2023-06-01T11:09:09;21.80;99.90
29453;DHT22;16424;50.956;5.320;2023-06-01T11:14:14;21.50;99.90
29453;DHT22;16424;50.956;5.320;2023-06-01T11:16:41;21.50;99.90
29453;DHT22;16424;50.956;5.320;2023-06-01T11:19:08;21.60;99.90
29453;DHT22;16424;50.956;5.320;2023-06-01T11:21:43;21.60;99.90
29453;DHT22;16424;50.956;5.320;2023-06-01T11:24:11;21.80;99.90
29453;DHT22;16424;50.956;5.320;2023-06-01T11:26:40;22.00;99.90
29453;DHT22;16424;50.956;5.320;2023-06-01T11:29:21;22.20;99.90
29453;DHT22;16424;50.956;5.320;2023-06-01T11:31:50;22.20;99.00
29453;DHT22;16424;50.956;5.320;2023-06-01T11:34:19;22.20;99.80
29453;DHT22;16424;50.956;5.320;2023-06-01T11:36:49;22.00;99.30
29453;DHT22;16424;50.956;5.320;2023-06-01T11:39:21;22.00;99.70
29453;DHT22;16424;50.956;5.320;2023-06-01T11:42:05;22.20;99.90
29453;DHT22;16424;50.956;5.320;2023-06-01T11:44:32;22.40;97.70
29453;DHT22;16424;50.956;5.320;2023-06-01T11:46:58;22.50;98.20
29453;DHT22;16424;50.956;5.320;2023-06-01T11:49:25;22.60;98.00
29453;DHT22;16424;50.956;5.320;2023-06-01T11:51:52;22.60;97.80
29453;DHT22;16424;50.956;5.320;2023-06-01T11:54:23;22.50;97.10
29453;DHT22;16424;50.956;5.320;2023-06-01T11:56:49;22.40;96.40
29453;DHT22;16424;50.956;5.320;2023-06-01T12:01:59;22.10;95.70
29453;DHT22;16424;50.956;5.320;2023-06-01T12:04:24;22.00;97.30
29453;DHT22;16424;50.956;5.320;2023-06-01T12:06:51;22.10;97.80
29453;DHT22;16424;50.956;5.320;2023-06-01T12:09:28;22.20;98.60
29453;DHT22;16424;50.956;5.320;2023-06-01T12:11:54;22.30;97.80
29453;DHT22;16424;50.956;5.320;2023-06-01T12:14:20;22.30;98.00
29453;DHT22;16424;50.956;5.320;2023-06-01T12:16:59;22.50;98.50
29453;DHT22;16424;50.956;5.320;2023-06-01T12:19:27;22.50;97.60
29453;DHT22;16424;50.956;5.320;2023-06-01T12:21:56;22.60;96.80
29453;DHT22;16424;50.956;5.320;2023-06-01T12:24:32;22.80;97.30
29453;DHT22;16424;50.956;5.320;2023-06-01T12:26:59;22.80;96.80
29453;DHT22;16424;50.956;5.320;2023-06-01T12:29:57;22.90;97.30
29453;DHT22;16424;50.956;5.320;2023-06-01T12:32:23;23.20;97.50
29453;DHT22;16424;50.956;5.320;2023-06-01T12:35:04;23.30;96.80
29453;DHT22;16424;50.956;5.320;2023-06-01T12:37:31;23.20;97.10
29453;DHT22;16424;50.956;5.320;2023-06-01T12:39:57;23.40;96.60
29453;DHT22;16424;50.956;5.320;2023-06-01T12:42:45;23.20;96.50
29453;DHT22;16424;50.956;5.320;2023-06-01T12:45:11;23.10;97.10
29453;DHT22;16424;50.956;5.320;2023-06-01T12:47:40;23.00;97.20
29453;DHT22;16424;50.956;5.320;2023-06-01T12:50:09;23.00;97.70
29453;DHT22;16424;50.956;5.320;2023-06-01T12:52:35;23.10;96.50
29453;DHT22;16424;50.956;5.320;2023-06-01T12:55:01;23.10;96.30
29453;DHT22;16424;50.956;5.320;2023-06-01T12:57:29;23.20;96.00
29453;DHT22;16424;50.956;5.320;2023-06-01T12:59:55;23.30;94.70
29453;DHT22;16424;50.956;5.320;2023-06-01T13:02:21;23.20;95.60
29453;DHT22;16424;50.956;5.320;2023-06-01T13:04:47;23.40;95.60
29453;DHT22;16424;50.956;5.320;2023-06-01T13:07:12;23.70;95.50
29453;DHT22;16424;50.956;5.320;2023-06-01T13:09:38;23.60;95.50
29453;DHT22;16424;50.956;5.320;2023-06-01T13:12:05;23.70;94.90
29453;DHT22;16424;50.956;5.320;2023-06-01T13:14:30;23.90;94.70
29453;DHT22;16424;50.956;5.320;2023-06-01T13:16:56;24.00;95.20
29453;DHT22;16424;50.956;5.320;2023-06-01T13:19:22;24.00;95.40
29453;DHT22;16424;50.956;5.320;2023-06-01T13:21:51;23.90;94.80
29453;DHT22;16424;50.956;5.320;2023-06-01T13:24:16;23.60;95.50
29453;DHT22;16424;50.956;5.320;2023-06-01T13:26:42;23.60;95.40
29453;DHT22;16424;50.956;5.320;2023-06-01T13:29:08;23.30;95.40
29453;DHT22;16424;50.956;5.320;2023-06-01T13:31:34;23.30;96.00
29453;DHT22;16424;50.956;5.320;2023-06-01T13:34:01;23.30;96.40
29453;DHT22;16424;50.956;5.320;2023-06-01T13:36:27;23.30;96.10
29453;DHT22;16424;50.956;5.320;2023-06-01T13:38:53;23.60;96.90
29453;DHT22;16424;50.956;5.320;2023-06-01T13:41:18;23.70;96.10
29453;DHT22;16424;50.956;5.320;2023-06-01T13:43:44;23.70;95.30
29453;DHT22;16424;50.956;5.320;2023-06-01T13:46:10;23.80;96.30
29453;DHT22;16424;50.956;5.320;2023-06-01T13:48:36;23.90;96.60
29453;DHT22;16424;50.956;5.320;2023-06-01T13:51:02;24.00;95.00
29453;DHT22;16424;50.956;5.320;2023-06-01T13:53:28;24.10;95.20
29453;DHT22;16424;50.956;5.320;2023-06-01T13:55:53;23.80;94.30
29453;DHT22;16424;50.956;5.320;2023-06-01T13:58:19;23.50;94.70
29453;DHT22;16424;50.956;5.320;2023-06-01T14:00:45;23.40;95.30
29453;DHT22;16424;50.956;5.320;2023-06-01T14:03:10;23.60;95.10
29453;DHT22;16424;50.956;5.320;2023-06-01T14:05:36;23.90;95.00
29453;DHT22;16424;50.956;5.320;2023-06-01T14:08:02;24.20;95.40
29453;DHT22;16424;50.956;5.320;2023-06-01T14:10:30;24.20;94.40
29453;DHT22;16424;50.956;5.320;2023-06-01T14:12:56;24.40;95.00
29453;DHT22;16424;50.956;5.320;2023-06-01T14:15:22;24.50;94.70
29453;DHT22;16424;50.956;5.320;2023-06-01T14:17:48;24.30;93.70
29453;DHT22;16424;50.956;5.320;2023-06-01T14:20:16;24.20;95.20
29453;DHT22;16424;50.956;5.320;2023-06-01T14:22:42;24.20;94.00
29453;DHT22;16424;50.956;5.320;2023-06-01T14:25:08;24.20;92.90
29453;DHT22;16424;50.956;5.320;2023-06-01T14:27:34;24.10;93.70
29453;DHT22;16424;50.956;5.320;2023-06-01T14:30:03;23.80;94.40
29453;DHT22;16424;50.956;5.320;2023-06-01T14:32:29;23.60;94.10
29453;DHT22;16424;50.956;5.320;2023-06-01T14:34:55;23.60;94.10
29453;DHT22;16424;50.956;5.320;2023-06-01T14:37:21;23.80;94.60
29453;DHT22;16424;50.956;5.320;2023-06-01T14:39:47;23.90;95.10
29453;DHT22;16424;50.956;5.320;2023-06-01T14:42:13;23.90;95.00
29453;DHT22;16424;50.956;5.320;2023-06-01T14:44:38;24.00;95.20
29453;DHT22;16424;50.956;5.320;2023-06-01T14:47:04;24.10;94.80
29453;DHT22;16424;50.956;5.320;2023-06-01T14:49:30;24.00;95.10
29453;DHT22;16424;50.956;5.320;2023-06-01T14:51:56;23.90;95.50
29453;DHT22;16424;50.956;5.320;2023-06-01T14:54:21;23.90;96.20
29453;DHT22;16424;50.956;5.320;2023-06-01T14:56:48;24.30;96.00
29453;DHT22;16424;50.956;5.320;2023-06-01T14:59:14;24.30;95.20
29453;DHT22;16424;50.956;5.320;2023-06-01T15:01:40;24.00;94.10
29453;DHT22;16424;50.956;5.320;2023-06-01T15:04:06;24.20;95.00
29453;DHT22;16424;50.956;5.320;2023-06-01T15:06:32;24.10;94.80
29453;DHT22;16424;50.956;5.320;2023-06-01T15:08:57;24.20;95.50
29453;DHT22;16424;50.956;5.320;2023-06-01T15:11:23;24.20;93.70
29453;DHT22;16424;50.956;5.320;2023-06-01T15:13:49;24.00;94.40
29453;DHT22;16424;50.956;5.320;2023-06-01T15:16:15;24.00;94.60
29453;DHT22;16424;50.956;5.320;2023-06-01T15:18:41;24.20;94.10
29453;DHT22;16424;50.956;5.320;2023-06-01T15:21:07;24.20;93.40
29453;DHT22;16424;50.956;5.320;2023-06-01T15:23:32;23.80;93.70
29453;DHT22;16424;50.956;5.320;2023-06-01T15:25:58;23.80;94.70
29453;DHT22;16424;50.956;5.320;2023-06-01T15:28:24;23.70;95.10
29453;DHT22;16424;50.956;5.320;2023-06-01T15:30:50;23.90;95.10
29453;DHT22;16424;50.956;5.320;2023-06-01T15:33:16;23.90;95.60
29453;DHT22;16424;50.956;5.320;2023-06-01T15:35:41;23.90;95.20
29453;DHT22;16424;50.956;5.320;2023-06-01T15:38:07;23.80;96.00
29453;DHT22;16424;50.956;5.320;2023-06-01T15:40:33;23.90;95.60
29453;DHT22;16424;50.956;5.320;2023-06-01T15:42:58;23.80;96.00
29453;DHT22;16424;50.956;5.320;2023-06-01T15:45:24;23.90;95.60
29453;DHT22;16424;50.956;5.320;2023-06-01T15:47:50;23.70;95.90
29453;DHT22;16424;50.956;5.320;2023-06-01T15:50:16;23.60;95.50
29453;DHT22;16424;50.956;5.320;2023-06-01T15:52:42;23.50;96.00
29453;DHT22;16424;50.956;5.320;2023-06-01T15:55:08;23.50;96.70
29453;DHT22;16424;50.956;5.320;2023-06-01T15:57:34;23.80;96.70
29453;DHT22;16424;50.956;5.320;2023-06-01T16:00:00;23.90;96.90
29453;DHT22;16424;50.956;5.320;2023-06-01T16:02:25;23.90;96.20